KGPC

Putnam County Regional Airport

Greencastle, Indiana, USA
METAR KGPC 220415Z AUTO 13009G16KT 10SM CLR M09/M15 A3038 RMK AO2
Observed Flight Rules
Jan-22 @ 04:15 UTC (19 minutes ago) Visual Flight Rules
Wind Visibility Clouds
130° at 9 knots
 Gusting to 16 knots
10 miles
  • Clear skies
Temperatures Readings
Current -9°C / 16°F
Dewpoint -15°C / 5°F
Humidity 62%
Altimeter 30.38" Hg
Pressure 1028.81 hPa
Elevation 257
METAR KGPC 220415Z AUTO 13009G16KT 10SM CLR M09/M15 A3038 RMK AO2
Observed Flight Rules
Jan-22 @ 04:15 UTC
(19 minutes ago)
VFR
Wind Visibility
130° at 9 knots
 Gusting to 16 knots
10 miles
Clouds
  • Clear skies
Temperature Dewpoint
-9°C / 16°F -15°C / 5°F
Humidity Altimeter Pressure
62% 30.38" Hg 1028.81 hPa